sensor_id;sensor_type;location;lat;lon;timestamp;P1;durP1;ratioP1;P2;durP2;ratioP2
5052;SDS011;2545;50.892;5.740;2023-01-10T00:00:39;7.07;;;3.20;;
5052;SDS011;2545;50.892;5.740;2023-01-10T00:03:05;11.50;;;4.10;;
5052;SDS011;2545;50.892;5.740;2023-01-10T00:05:33;20.60;;;3.20;;
5052;SDS011;2545;50.892;5.740;2023-01-10T00:07:59;16.73;;;3.80;;
5052;SDS011;2545;50.892;5.740;2023-01-10T00:10:26;8.50;;;2.93;;
5052;SDS011;2545;50.892;5.740;2023-01-10T00:12:51;5.60;;;3.13;;
5052;SDS011;2545;50.892;5.740;2023-01-10T00:15:35;18.83;;;3.80;;
5052;SDS011;2545;50.892;5.740;2023-01-10T00:18:01;11.80;;;3.70;;
5052;SDS011;2545;50.892;5.740;2023-01-10T00:20:27;9.80;;;3.50;;
5052;SDS011;2545;50.892;5.740;2023-01-10T00:22:52;4.13;;;2.87;;
5052;SDS011;2545;50.892;5.740;2023-01-10T00:25:17;10.93;;;3.20;;
5052;SDS011;2545;50.892;5.740;2023-01-10T00:27:45;10.30;;;3.33;;
5052;SDS011;2545;50.892;5.740;2023-01-10T00:30:13;7.87;;;4.13;;
5052;SDS011;2545;50.892;5.740;2023-01-10T00:32:42;15.03;;;3.27;;
5052;SDS011;2545;50.892;5.740;2023-01-10T00:35:09;14.13;;;3.40;;
5052;SDS011;2545;50.892;5.740;2023-01-10T00:37:35;14.03;;;3.40;;
5052;SDS011;2545;50.892;5.740;2023-01-10T00:40:01;15.27;;;5.30;;
5052;SDS011;2545;50.892;5.740;2023-01-10T00:42:26;17.37;;;4.60;;
5052;SDS011;2545;50.892;5.740;2023-01-10T00:45:10;17.50;;;5.60;;
5052;SDS011;2545;50.892;5.740;2023-01-10T00:47:36;10.10;;;3.27;;
5052;SDS011;2545;50.892;5.740;2023-01-10T00:50:02;15.00;;;3.80;;
5052;SDS011;2545;50.892;5.740;2023-01-10T00:52:29;17.50;;;4.33;;
5052;SDS011;2545;50.892;5.740;2023-01-10T00:54:55;12.27;;;3.60;;
5052;SDS011;2545;50.892;5.740;2023-01-10T00:57:20;13.47;;;3.50;;
5052;SDS011;2545;50.892;5.740;2023-01-10T00:59:46;9.50;;;3.27;;
5052;SDS011;2545;50.892;5.740;2023-01-10T01:02:11;9.10;;;2.90;;
5052;SDS011;2545;50.892;5.740;2023-01-10T01:04:36;17.20;;;3.77;;
5052;SDS011;2545;50.892;5.740;2023-01-10T01:07:02;5.93;;;2.63;;
5052;SDS011;2545;50.892;5.740;2023-01-10T01:09:28;17.43;;;3.73;;
5052;SDS011;2545;50.892;5.740;2023-01-10T01:11:54;10.00;;;2.97;;
5052;SDS011;2545;50.892;5.740;2023-01-10T01:14:21;10.00;;;3.30;;
5052;SDS011;2545;50.892;5.740;2023-01-10T01:16:47;19.90;;;2.90;;
5052;SDS011;2545;50.892;5.740;2023-01-10T01:19:12;15.33;;;2.90;;
5052;SDS011;2545;50.892;5.740;2023-01-10T01:21:37;21.00;;;4.23;;
5052;SDS011;2545;50.892;5.740;2023-01-10T01:24:03;9.80;;;4.40;;
5052;SDS011;2545;50.892;5.740;2023-01-10T01:26:28;14.30;;;4.47;;
5052;SDS011;2545;50.892;5.740;2023-01-10T01:28:54;9.20;;;2.90;;
5052;SDS011;2545;50.892;5.740;2023-01-10T01:31:19;21.53;;;3.07;;
5052;SDS011;2545;50.892;5.740;2023-01-10T01:33:45;12.00;;;3.20;;
5052;SDS011;2545;50.892;5.740;2023-01-10T01:36:10;5.40;;;2.67;;
5052;SDS011;2545;50.892;5.740;2023-01-10T01:38:37;11.13;;;2.57;;
5052;SDS011;2545;50.892;5.740;2023-01-10T01:41:03;11.60;;;3.30;;
5052;SDS011;2545;50.892;5.740;2023-01-10T01:43:59;14.87;;;3.07;;
5052;SDS011;2545;50.892;5.740;2023-01-10T01:46:35;17.33;;;3.20;;
5052;SDS011;2545;50.892;5.740;2023-01-10T01:49:03;11.70;;;3.53;;
5052;SDS011;2545;50.892;5.740;2023-01-10T01:51:33;9.03;;;2.57;;
5052;SDS011;2545;50.892;5.740;2023-01-10T01:53:59;8.93;;;3.00;;
5052;SDS011;2545;50.892;5.740;2023-01-10T01:56:32;19.27;;;3.33;;
5052;SDS011;2545;50.892;5.740;2023-01-10T01:59:05;18.30;;;3.67;;
5052;SDS011;2545;50.892;5.740;2023-01-10T02:01:33;11.03;;;3.50;;
5052;SDS011;2545;50.892;5.740;2023-01-10T02:04:03;10.40;;;3.80;;
5052;SDS011;2545;50.892;5.740;2023-01-10T02:06:35;7.53;;;2.77;;
5052;SDS011;2545;50.892;5.740;2023-01-10T02:09:08;15.00;;;3.10;;
5052;SDS011;2545;50.892;5.740;2023-01-10T02:11:46;16.20;;;3.47;;
5052;SDS011;2545;50.892;5.740;2023-01-10T02:14:11;13.93;;;3.53;;
5052;SDS011;2545;50.892;5.740;2023-01-10T02:16:39;9.50;;;2.93;;
5052;SDS011;2545;50.892;5.740;2023-01-10T02:19:05;13.50;;;3.40;;
5052;SDS011;2545;50.892;5.740;2023-01-10T02:27:22;13.80;;;3.17;;
5052;SDS011;2545;50.892;5.740;2023-01-10T02:29:55;10.23;;;2.70;;
5052;SDS011;2545;50.892;5.740;2023-01-10T02:32:48;13.50;;;3.23;;
5052;SDS011;2545;50.892;5.740;2023-01-10T02:37:52;8.23;;;2.40;;
5052;SDS011;2545;50.892;5.740;2023-01-10T02:40:33;6.63;;;3.50;;
5052;SDS011;2545;50.892;5.740;2023-01-10T02:43:22;9.97;;;3.37;;
5052;SDS011;2545;50.892;5.740;2023-01-10T02:45:56;19.60;;;5.40;;
5052;SDS011;2545;50.892;5.740;2023-01-10T02:48:22;14.30;;;3.70;;
5052;SDS011;2545;50.892;5.740;2023-01-10T02:50:55;15.40;;;4.63;;
5052;SDS011;2545;50.892;5.740;2023-01-10T02:53:31;16.30;;;3.60;;
5052;SDS011;2545;50.892;5.740;2023-01-10T03:07:36;18.70;;;3.80;;
5052;SDS011;2545;50.892;5.740;2023-01-10T03:10:09;13.67;;;3.57;;
5052;SDS011;2545;50.892;5.740;2023-01-10T03:12:53;15.27;;;3.20;;
5052;SDS011;2545;50.892;5.740;2023-01-10T03:15:22;16.83;;;3.77;;
5052;SDS011;2545;50.892;5.740;2023-01-10T03:17:53;22.47;;;4.03;;
5052;SDS011;2545;50.892;5.740;2023-01-10T03:20:22;18.77;;;3.87;;
5052;SDS011;2545;50.892;5.740;2023-01-10T03:22:48;5.80;;;3.10;;
5052;SDS011;2545;50.892;5.740;2023-01-10T03:25:17;26.97;;;4.47;;
5052;SDS011;2545;50.892;5.740;2023-01-10T03:33:16;22.87;;;4.07;;
5052;SDS011;2545;50.892;5.740;2023-01-10T03:35:49;15.97;;;4.30;;
5052;SDS011;2545;50.892;5.740;2023-01-10T03:38:20;9.27;;;4.40;;
5052;SDS011;2545;50.892;5.740;2023-01-10T03:41:04;17.00;;;3.50;;
5052;SDS011;2545;50.892;5.740;2023-01-10T03:44:24;29.73;;;4.07;;
5052;SDS011;2545;50.892;5.740;2023-01-10T03:46:50;11.10;;;3.63;;
5052;SDS011;2545;50.892;5.740;2023-01-10T03:49:23;29.37;;;4.00;;
5052;SDS011;2545;50.892;5.740;2023-01-10T03:51:51;30.20;;;5.07;;
5052;SDS011;2545;50.892;5.740;2023-01-10T03:54:17;13.70;;;3.80;;
5052;SDS011;2545;50.892;5.740;2023-01-10T03:56:47;44.73;;;5.20;;
5052;SDS011;2545;50.892;5.740;2023-01-10T03:59:14;13.50;;;3.20;;
5052;SDS011;2545;50.892;5.740;2023-01-10T04:01:41;18.50;;;4.17;;
5052;SDS011;2545;50.892;5.740;2023-01-10T04:04:06;14.03;;;3.83;;
5052;SDS011;2545;50.892;5.740;2023-01-10T04:06:32;17.33;;;3.80;;
5052;SDS011;2545;50.892;5.740;2023-01-10T04:08:57;20.07;;;4.03;;
5052;SDS011;2545;50.892;5.740;2023-01-10T04:11:22;31.57;;;3.43;;
5052;SDS011;2545;50.892;5.740;2023-01-10T04:13:48;18.00;;;3.50;;
5052;SDS011;2545;50.892;5.740;2023-01-10T04:16:13;39.13;;;6.20;;
5052;SDS011;2545;50.892;5.740;2023-01-10T04:18:38;26.07;;;4.10;;
5052;SDS011;2545;50.892;5.740;2023-01-10T04:21:04;13.63;;;4.07;;
5052;SDS011;2545;50.892;5.740;2023-01-10T04:23:30;27.23;;;4.60;;
5052;SDS011;2545;50.892;5.740;2023-01-10T04:25:56;12.77;;;3.83;;
5052;SDS011;2545;50.892;5.740;2023-01-10T04:28:21;23.50;;;4.53;;
5052;SDS011;2545;50.892;5.740;2023-01-10T04:30:47;23.50;;;4.90;;
5052;SDS011;2545;50.892;5.740;2023-01-10T04:33:12;16.33;;;4.80;;
5052;SDS011;2545;50.892;5.740;2023-01-10T04:35:37;13.70;;;3.50;;
5052;SDS011;2545;50.892;5.740;2023-01-10T04:38:02;23.90;;;5.00;;
5052;SDS011;2545;50.892;5.740;2023-01-10T04:40:28;23.43;;;4.60;;
5052;SDS011;2545;50.892;5.740;2023-01-10T04:42:53;15.00;;;4.10;;
5052;SDS011;2545;50.892;5.740;2023-01-10T04:45:18;26.77;;;4.80;;
5052;SDS011;2545;50.892;5.740;2023-01-10T04:47:49;22.37;;;4.37;;
5052;SDS011;2545;50.892;5.740;2023-01-10T04:50:15;10.33;;;3.80;;
5052;SDS011;2545;50.892;5.740;2023-01-10T04:52:41;26.40;;;5.17;;
5052;SDS011;2545;50.892;5.740;2023-01-10T04:55:07;26.77;;;5.57;;
5052;SDS011;2545;50.892;5.740;2023-01-10T04:57:33;13.67;;;3.40;;
5052;SDS011;2545;50.892;5.740;2023-01-10T04:59:59;30.37;;;4.07;;
5052;SDS011;2545;50.892;5.740;2023-01-10T05:02:24;16.83;;;3.83;;
5052;SDS011;2545;50.892;5.740;2023-01-10T05:04:49;26.43;;;4.43;;
5052;SDS011;2545;50.892;5.740;2023-01-10T05:07:14;15.07;;;4.40;;
5052;SDS011;2545;50.892;5.740;2023-01-10T05:09:40;28.90;;;5.10;;
5052;SDS011;2545;50.892;5.740;2023-01-10T05:12:06;23.37;;;4.37;;
5052;SDS011;2545;50.892;5.740;2023-01-10T05:14:32;22.33;;;3.90;;
5052;SDS011;2545;50.892;5.740;2023-01-10T05:16:57;9.43;;;3.40;;
5052;SDS011;2545;50.892;5.740;2023-01-10T05:19:23;28.17;;;4.10;;
5052;SDS011;2545;50.892;5.740;2023-01-10T05:21:48;29.60;;;4.57;;
5052;SDS011;2545;50.892;5.740;2023-01-10T05:24:16;14.70;;;4.43;;
5052;SDS011;2545;50.892;5.740;2023-01-10T05:26:41;23.07;;;3.43;;
5052;SDS011;2545;50.892;5.740;2023-01-10T05:29:09;12.93;;;4.63;;
5052;SDS011;2545;50.892;5.740;2023-01-10T05:31:35;13.87;;;3.83;;
5052;SDS011;2545;50.892;5.740;2023-01-10T05:34:01;32.20;;;4.43;;
5052;SDS011;2545;50.892;5.740;2023-01-10T05:36:26;31.97;;;4.93;;
5052;SDS011;2545;50.892;5.740;2023-01-10T05:38:52;24.87;;;4.20;;
5052;SDS011;2545;50.892;5.740;2023-01-10T05:41:17;21.93;;;4.83;;
5052;SDS011;2545;50.892;5.740;2023-01-10T05:43:42;18.67;;;4.60;;
5052;SDS011;2545;50.892;5.740;2023-01-10T05:46:08;25.80;;;4.30;;
5052;SDS011;2545;50.892;5.740;2023-01-10T05:48:33;20.00;;;3.90;;
5052;SDS011;2545;50.892;5.740;2023-01-10T05:50:59;11.00;;;3.43;;
5052;SDS011;2545;50.892;5.740;2023-01-10T05:53:24;16.87;;;3.07;;
5052;SDS011;2545;50.892;5.740;2023-01-10T05:55:53;26.47;;;4.50;;
5052;SDS011;2545;50.892;5.740;2023-01-10T05:58:20;29.27;;;5.03;;
5052;SDS011;2545;50.892;5.740;2023-01-10T06:00:45;13.03;;;4.10;;
5052;SDS011;2545;50.892;5.740;2023-01-10T06:03:11;24.50;;;5.60;;
5052;SDS011;2545;50.892;5.740;2023-01-10T06:05:37;18.83;;;4.73;;
5052;SDS011;2545;50.892;5.740;2023-01-10T06:08:02;16.33;;;3.83;;
5052;SDS011;2545;50.892;5.740;2023-01-10T06:10:27;26.53;;;3.20;;
5052;SDS011;2545;50.892;5.740;2023-01-10T06:12:53;21.93;;;3.70;;
5052;SDS011;2545;50.892;5.740;2023-01-10T06:15:18;23.73;;;4.83;;
5052;SDS011;2545;50.892;5.740;2023-01-10T06:17:43;20.30;;;5.40;;
5052;SDS011;2545;50.892;5.740;2023-01-10T06:20:10;27.50;;;4.30;;
5052;SDS011;2545;50.892;5.740;2023-01-10T06:22:38;26.33;;;3.47;;
5052;SDS011;2545;50.892;5.740;2023-01-10T06:25:05;16.40;;;4.00;;
5052;SDS011;2545;50.892;5.740;2023-01-10T06:27:31;21.27;;;3.90;;
5052;SDS011;2545;50.892;5.740;2023-01-10T06:29:56;17.13;;;4.97;;
5052;SDS011;2545;50.892;5.740;2023-01-10T06:32:23;12.30;;;3.60;;
5052;SDS011;2545;50.892;5.740;2023-01-10T06:34:48;18.63;;;4.50;;
5052;SDS011;2545;50.892;5.740;2023-01-10T06:37:13;30.63;;;4.77;;
5052;SDS011;2545;50.892;5.740;2023-01-10T06:39:39;17.23;;;3.23;;
5052;SDS011;2545;50.892;5.740;2023-01-10T06:42:04;14.10;;;3.50;;
5052;SDS011;2545;50.892;5.740;2023-01-10T06:44:29;26.77;;;4.10;;
5052;SDS011;2545;50.892;5.740;2023-01-10T06:46:54;32.03;;;5.03;;
5052;SDS011;2545;50.892;5.740;2023-01-10T06:49:20;24.13;;;6.50;;
5052;SDS011;2545;50.892;5.740;2023-01-10T06:51:45;17.17;;;4.13;;
5052;SDS011;2545;50.892;5.740;2023-01-10T06:54:10;24.47;;;4.33;;
5052;SDS011;2545;50.892;5.740;2023-01-10T06:56:36;14.10;;;4.03;;
5052;SDS011;2545;50.892;5.740;2023-01-10T06:59:01;17.20;;;5.00;;
5052;SDS011;2545;50.892;5.740;2023-01-10T07:01:26;25.27;;;4.10;;
5052;SDS011;2545;50.892;5.740;2023-01-10T07:03:52;18.70;;;5.47;;
5052;SDS011;2545;50.892;5.740;2023-01-10T07:06:17;14.30;;;3.40;;
5052;SDS011;2545;50.892;5.740;2023-01-10T07:08:43;19.13;;;4.07;;
5052;SDS011;2545;50.892;5.740;2023-01-10T07:11:10;14.70;;;4.00;;
5052;SDS011;2545;50.892;5.740;2023-01-10T07:13:37;22.73;;;4.13;;
5052;SDS011;2545;50.892;5.740;2023-01-10T07:16:10;26.50;;;5.73;;
5052;SDS011;2545;50.892;5.740;2023-01-10T07:18:38;13.13;;;4.33;;
5052;SDS011;2545;50.892;5.740;2023-01-10T07:21:05;22.33;;;4.60;;
5052;SDS011;2545;50.892;5.740;2023-01-10T07:23:32;17.10;;;3.57;;
5052;SDS011;2545;50.892;5.740;2023-01-10T07:26:00;30.33;;;6.27;;
5052;SDS011;2545;50.892;5.740;2023-01-10T07:28:27;18.10;;;3.97;;
5052;SDS011;2545;50.892;5.740;2023-01-10T07:30:52;24.73;;;4.53;;
5052;SDS011;2545;50.892;5.740;2023-01-10T07:33:18;28.13;;;4.37;;
5052;SDS011;2545;50.892;5.740;2023-01-10T07:35:43;33.30;;;4.73;;
5052;SDS011;2545;50.892;5.740;2023-01-10T07:38:08;33.90;;;4.27;;
5052;SDS011;2545;50.892;5.740;2023-01-10T07:40:34;27.23;;;5.23;;
5052;SDS011;2545;50.892;5.740;2023-01-10T07:42:59;23.63;;;4.97;;
5052;SDS011;2545;50.892;5.740;2023-01-10T07:45:26;18.87;;;4.37;;
5052;SDS011;2545;50.892;5.740;2023-01-10T07:47:58;20.60;;;4.70;;
5052;SDS011;2545;50.892;5.740;2023-01-10T07:50:26;24.03;;;5.30;;
5052;SDS011;2545;50.892;5.740;2023-01-10T07:52:52;23.97;;;6.00;;
5052;SDS011;2545;50.892;5.740;2023-01-10T07:55:18;40.20;;;7.00;;
5052;SDS011;2545;50.892;5.740;2023-01-10T07:57:43;23.37;;;5.50;;
5052;SDS011;2545;50.892;5.740;2023-01-10T08:00:09;33.43;;;5.43;;
5052;SDS011;2545;50.892;5.740;2023-01-10T08:02:35;26.13;;;5.23;;
5052;SDS011;2545;50.892;5.740;2023-01-10T08:05:00;22.60;;;4.60;;
5052;SDS011;2545;50.892;5.740;2023-01-10T08:07:29;18.20;;;4.53;;
5052;SDS011;2545;50.892;5.740;2023-01-10T08:09:55;18.43;;;4.40;;
5052;SDS011;2545;50.892;5.740;2023-01-10T08:12:21;25.43;;;5.07;;
5052;SDS011;2545;50.892;5.740;2023-01-10T08:14:48;20.40;;;5.03;;
5052;SDS011;2545;50.892;5.740;2023-01-10T08:17:14;23.00;;;4.20;;
5052;SDS011;2545;50.892;5.740;2023-01-10T08:19:39;28.07;;;4.97;;
5052;SDS011;2545;50.892;5.740;2023-01-10T08:22:04;18.90;;;3.77;;
5052;SDS011;2545;50.892;5.740;2023-01-10T08:24:30;30.00;;;4.47;;
5052;SDS011;2545;50.892;5.740;2023-01-10T08:26:58;22.30;;;4.73;;
5052;SDS011;2545;50.892;5.740;2023-01-10T08:29:24;37.37;;;5.10;;
5052;SDS011;2545;50.892;5.740;2023-01-10T08:31:49;26.37;;;4.30;;
5052;SDS011;2545;50.892;5.740;2023-01-10T08:34:15;20.00;;;5.17;;
5052;SDS011;2545;50.892;5.740;2023-01-10T08:36:40;19.70;;;5.80;;
5052;SDS011;2545;50.892;5.740;2023-01-10T08:39:06;15.77;;;4.10;;
5052;SDS011;2545;50.892;5.740;2023-01-10T08:41:31;47.00;;;6.53;;
5052;SDS011;2545;50.892;5.740;2023-01-10T08:43:56;36.93;;;10.10;;
5052;SDS011;2545;50.892;5.740;2023-01-10T08:46:22;39.00;;;9.03;;
5052;SDS011;2545;50.892;5.740;2023-01-10T08:48:47;19.80;;;7.77;;
5052;SDS011;2545;50.892;5.740;2023-01-10T08:51:14;24.07;;;7.20;;
5052;SDS011;2545;50.892;5.740;2023-01-10T08:53:40;21.77;;;4.30;;
5052;SDS011;2545;50.892;5.740;2023-01-10T08:56:06;15.97;;;4.90;;
5052;SDS011;2545;50.892;5.740;2023-01-10T08:58:32;17.60;;;4.47;;
5052;SDS011;2545;50.892;5.740;2023-01-10T09:00:58;14.63;;;5.07;;
5052;SDS011;2545;50.892;5.740;2023-01-10T09:03:27;28.40;;;5.17;;
5052;SDS011;2545;50.892;5.740;2023-01-10T09:05:52;13.03;;;5.60;;
5052;SDS011;2545;50.892;5.740;2023-01-10T09:08:17;24.23;;;4.70;;
5052;SDS011;2545;50.892;5.740;2023-01-10T09:10:43;14.20;;;4.40;;
5052;SDS011;2545;50.892;5.740;2023-01-10T09:13:08;26.53;;;8.73;;
5052;SDS011;2545;50.892;5.740;2023-01-10T09:15:34;25.53;;;5.93;;
5052;SDS011;2545;50.892;5.740;2023-01-10T09:18:02;23.50;;;5.10;;
5052;SDS011;2545;50.892;5.740;2023-01-10T09:20:29;28.27;;;4.50;;
5052;SDS011;2545;50.892;5.740;2023-01-10T09:22:55;18.90;;;3.87;;
5052;SDS011;2545;50.892;5.740;2023-01-10T09:25:22;28.53;;;4.37;;
5052;SDS011;2545;50.892;5.740;2023-01-10T09:27:54;22.53;;;4.03;;
5052;SDS011;2545;50.892;5.740;2023-01-10T09:30:21;9.70;;;3.70;;
5052;SDS011;2545;50.892;5.740;2023-01-10T09:32:50;26.30;;;5.70;;
5052;SDS011;2545;50.892;5.740;2023-01-10T09:35:16;25.47;;;5.10;;
5052;SDS011;2545;50.892;5.740;2023-01-10T09:37:41;17.90;;;3.90;;
5052;SDS011;2545;50.892;5.740;2023-01-10T09:40:08;21.70;;;3.83;;
5052;SDS011;2545;50.892;5.740;2023-01-10T09:45:27;27.20;;;4.60;;
5052;SDS011;2545;50.892;5.740;2023-01-10T09:48:02;27.57;;;5.30;;
5052;SDS011;2545;50.892;5.740;2023-01-10T09:53:19;22.53;;;4.33;;
5052;SDS011;2545;50.892;5.740;2023-01-10T09:55:50;13.37;;;3.70;;
5052;SDS011;2545;50.892;5.740;2023-01-10T09:58:18;17.63;;;3.67;;
5052;SDS011;2545;50.892;5.740;2023-01-10T10:06:18;21.33;;;4.60;;
5052;SDS011;2545;50.892;5.740;2023-01-10T10:08:46;19.00;;;5.10;;
5052;SDS011;2545;50.892;5.740;2023-01-10T10:19:27;21.00;;;5.33;;
5052;SDS011;2545;50.892;5.740;2023-01-10T10:22:15;21.73;;;6.17;;
5052;SDS011;2545;50.892;5.740;2023-01-10T10:27:34;20.10;;;4.40;;
5052;SDS011;2545;50.892;5.740;2023-01-10T10:30:09;17.43;;;4.13;;
5052;SDS011;2545;50.892;5.740;2023-01-10T10:37:57;19.03;;;5.53;;
5052;SDS011;2545;50.892;5.740;2023-01-10T10:40:31;16.00;;;4.67;;
5052;SDS011;2545;50.892;5.740;2023-01-10T10:43:17;26.10;;;4.70;;
5052;SDS011;2545;50.892;5.740;2023-01-10T10:45:46;35.07;;;4.53;;
5052;SDS011;2545;50.892;5.740;2023-01-10T10:53:30;18.47;;;5.10;;
5052;SDS011;2545;50.892;5.740;2023-01-10T10:55:57;14.30;;;3.30;;
5052;SDS011;2545;50.892;5.740;2023-01-10T10:58:23;19.40;;;4.10;;
5052;SDS011;2545;50.892;5.740;2023-01-10T11:00:50;28.10;;;4.53;;
5052;SDS011;2545;50.892;5.740;2023-01-10T11:03:34;24.77;;;4.23;;
5052;SDS011;2545;50.892;5.740;2023-01-10T11:06:06;13.97;;;3.97;;
5052;SDS011;2545;50.892;5.740;2023-01-10T11:08:34;16.00;;;4.30;;
5052;SDS011;2545;50.892;5.740;2023-01-10T11:11:05;18.60;;;3.80;;
5052;SDS011;2545;50.892;5.740;2023-01-10T11:13:59;23.53;;;4.47;;
5052;SDS011;2545;50.892;5.740;2023-01-10T11:16:30;21.10;;;5.17;;
5052;SDS011;2545;50.892;5.740;2023-01-10T11:22:05;23.60;;;4.50;;
5052;SDS011;2545;50.892;5.740;2023-01-10T11:24:34;17.40;;;3.80;;
5052;SDS011;2545;50.892;5.740;2023-01-10T11:27:04;10.77;;;3.60;;
5052;SDS011;2545;50.892;5.740;2023-01-10T11:29:44;18.03;;;5.17;;
5052;SDS011;2545;50.892;5.740;2023-01-10T11:32:14;14.17;;;3.87;;
5052;SDS011;2545;50.892;5.740;2023-01-10T11:34:52;13.77;;;3.70;;
5052;SDS011;2545;50.892;5.740;2023-01-10T11:37:33;17.93;;;3.80;;
5052;SDS011;2545;50.892;5.740;2023-01-10T11:42:34;18.63;;;4.33;;
5052;SDS011;2545;50.892;5.740;2023-01-10T11:50:48;22.07;;;4.17;;
5052;SDS011;2545;50.892;5.740;2023-01-10T11:56:04;13.13;;;4.13;;
5052;SDS011;2545;50.892;5.740;2023-01-10T11:58:32;19.43;;;3.73;;
5052;SDS011;2545;50.892;5.740;2023-01-10T12:00:59;19.27;;;5.50;;
5052;SDS011;2545;50.892;5.740;2023-01-10T12:06:02;21.20;;;4.30;;
5052;SDS011;2545;50.892;5.740;2023-01-10T12:08:32;18.10;;;4.33;;
5052;SDS011;2545;50.892;5.740;2023-01-10T12:11:03;11.93;;;3.97;;
5052;SDS011;2545;50.892;5.740;2023-01-10T12:13:53;15.90;;;3.90;;
5052;SDS011;2545;50.892;5.740;2023-01-10T12:18:54;28.20;;;3.83;;
5052;SDS011;2545;50.892;5.740;2023-01-10T12:21:25;31.60;;;4.53;;
5052;SDS011;2545;50.892;5.740;2023-01-10T12:24:02;28.37;;;5.30;;
5052;SDS011;2545;50.892;5.740;2023-01-10T12:26:33;28.40;;;3.87;;
5052;SDS011;2545;50.892;5.740;2023-01-10T12:29:14;15.30;;;3.47;;
5052;SDS011;2545;50.892;5.740;2023-01-10T12:31:42;18.43;;;4.40;;
5052;SDS011;2545;50.892;5.740;2023-01-10T12:34:17;17.10;;;3.40;;
5052;SDS011;2545;50.892;5.740;2023-01-10T12:39:27;18.67;;;3.40;;
5052;SDS011;2545;50.892;5.740;2023-01-10T12:42:09;13.17;;;2.70;;
5052;SDS011;2545;50.892;5.740;2023-01-10T12:45:02;17.83;;;4.70;;
5052;SDS011;2545;50.892;5.740;2023-01-10T12:47:33;20.60;;;3.47;;
5052;SDS011;2545;50.892;5.740;2023-01-10T12:55:15;16.40;;;4.37;;
5052;SDS011;2545;50.892;5.740;2023-01-10T12:57:48;14.80;;;4.30;;
5052;SDS011;2545;50.892;5.740;2023-01-10T13:02:43;30.80;;;4.60;;
5052;SDS011;2545;50.892;5.740;2023-01-10T13:05:15;25.67;;;4.20;;
5052;SDS011;2545;50.892;5.740;2023-01-10T13:07:42;19.13;;;4.67;;
5052;SDS011;2545;50.892;5.740;2023-01-10T13:10:12;18.73;;;3.60;;
5052;SDS011;2545;50.892;5.740;2023-01-10T13:12:41;10.03;;;3.57;;
5052;SDS011;2545;50.892;5.740;2023-01-10T13:17:54;10.53;;;2.97;;
5052;SDS011;2545;50.892;5.740;2023-01-10T13:22:55;10.17;;;3.57;;
5052;SDS011;2545;50.892;5.740;2023-01-10T13:25:29;17.50;;;3.57;;
5052;SDS011;2545;50.892;5.740;2023-01-10T13:30:39;21.70;;;4.60;;
5052;SDS011;2545;50.892;5.740;2023-01-10T13:33:06;24.57;;;3.87;;
5052;SDS011;2545;50.892;5.740;2023-01-10T13:35:41;10.80;;;3.20;;
5052;SDS011;2545;50.892;5.740;2023-01-10T13:38:17;11.57;;;2.97;;
5052;SDS011;2545;50.892;5.740;2023-01-10T13:41:00;23.37;;;4.20;;
5052;SDS011;2545;50.892;5.740;2023-01-10T13:43:29;13.30;;;3.30;;
5052;SDS011;2545;50.892;5.740;2023-01-10T13:51:21;13.47;;;3.20;;
5052;SDS011;2545;50.892;5.740;2023-01-10T13:56:28;29.10;;;4.27;;
5052;SDS011;2545;50.892;5.740;2023-01-10T13:58:54;14.23;;;3.07;;
5052;SDS011;2545;50.892;5.740;2023-01-10T14:01:58;15.77;;;3.50;;
5052;SDS011;2545;50.892;5.740;2023-01-10T14:04:45;34.07;;;5.90;;
5052;SDS011;2545;50.892;5.740;2023-01-10T14:09:49;14.47;;;3.43;;
5052;SDS011;2545;50.892;5.740;2023-01-10T14:14:41;13.23;;;4.10;;
5052;SDS011;2545;50.892;5.740;2023-01-10T14:17:22;20.20;;;4.47;;
5052;SDS011;2545;50.892;5.740;2023-01-10T14:22:36;14.63;;;3.60;;
5052;SDS011;2545;50.892;5.740;2023-01-10T14:25:05;21.97;;;3.40;;
5052;SDS011;2545;50.892;5.740;2023-01-10T14:27:42;20.53;;;3.80;;
5052;SDS011;2545;50.892;5.740;2023-01-10T14:30:14;20.67;;;4.00;;
5052;SDS011;2545;50.892;5.740;2023-01-10T14:32:44;11.67;;;3.30;;
5052;SDS011;2545;50.892;5.740;2023-01-10T14:35:16;12.37;;;3.80;;
5052;SDS011;2545;50.892;5.740;2023-01-10T14:37:56;18.83;;;4.40;;
5052;SDS011;2545;50.892;5.740;2023-01-10T14:40:36;23.87;;;3.57;;
5052;SDS011;2545;50.892;5.740;2023-01-10T14:43:08;11.10;;;3.40;;
5052;SDS011;2545;50.892;5.740;2023-01-10T14:45:44;13.63;;;3.10;;
5052;SDS011;2545;50.892;5.740;2023-01-10T14:48:21;13.10;;;3.07;;
5052;SDS011;2545;50.892;5.740;2023-01-10T14:50:50;14.53;;;3.63;;
5052;SDS011;2545;50.892;5.740;2023-01-10T14:53:26;12.13;;;3.10;;
5052;SDS011;2545;50.892;5.740;2023-01-10T14:55:53;14.83;;;3.90;;
5052;SDS011;2545;50.892;5.740;2023-01-10T14:58:18;17.03;;;3.60;;
5052;SDS011;2545;50.892;5.740;2023-01-10T15:00:46;7.13;;;3.23;;
5052;SDS011;2545;50.892;5.740;2023-01-10T15:03:19;18.77;;;3.70;;
5052;SDS011;2545;50.892;5.740;2023-01-10T15:05:48;25.20;;;3.70;;
5052;SDS011;2545;50.892;5.740;2023-01-10T15:08:16;10.47;;;3.13;;
5052;SDS011;2545;50.892;5.740;2023-01-10T15:10:44;14.40;;;3.60;;
5052;SDS011;2545;50.892;5.740;2023-01-10T15:13:12;12.33;;;3.40;;
5052;SDS011;2545;50.892;5.740;2023-01-10T15:15:41;10.47;;;3.30;;
5052;SDS011;2545;50.892;5.740;2023-01-10T15:20:41;13.57;;;2.57;;
5052;SDS011;2545;50.892;5.740;2023-01-10T15:23:11;5.57;;;2.43;;
5052;SDS011;2545;50.892;5.740;2023-01-10T15:25:38;11.13;;;3.70;;
5052;SDS011;2545;50.892;5.740;2023-01-10T15:28:04;10.97;;;2.70;;
5052;SDS011;2545;50.892;5.740;2023-01-10T15:30:39;12.27;;;2.77;;
5052;SDS011;2545;50.892;5.740;2023-01-10T15:33:08;7.10;;;2.90;;
5052;SDS011;2545;50.892;5.740;2023-01-10T15:35:37;10.57;;;2.67;;
5052;SDS011;2545;50.892;5.740;2023-01-10T15:38:07;9.70;;;2.47;;
5052;SDS011;2545;50.892;5.740;2023-01-10T15:40:37;3.83;;;2.27;;
5052;SDS011;2545;50.892;5.740;2023-01-10T15:45:41;7.97;;;2.33;;
5052;SDS011;2545;50.892;5.740;2023-01-10T15:50:56;6.93;;;2.00;;
5052;SDS011;2545;50.892;5.740;2023-01-10T15:56:21;3.73;;;1.80;;
5052;SDS011;2545;50.892;5.740;2023-01-10T15:58:53;4.40;;;1.70;;
5052;SDS011;2545;50.892;5.740;2023-01-10T16:01:20;6.43;;;1.80;;
5052;SDS011;2545;50.892;5.740;2023-01-10T16:03:47;8.73;;;1.83;;
5052;SDS011;2545;50.892;5.740;2023-01-10T16:06:19;11.50;;;1.93;;
5052;SDS011;2545;50.892;5.740;2023-01-10T16:08:48;10.27;;;2.07;;
5052;SDS011;2545;50.892;5.740;2023-01-10T16:11:17;6.83;;;2.27;;
5052;SDS011;2545;50.892;5.740;2023-01-10T16:14:06;6.30;;;2.27;;
5052;SDS011;2545;50.892;5.740;2023-01-10T16:16:31;4.17;;;2.13;;
5052;SDS011;2545;50.892;5.740;2023-01-10T16:18:57;5.47;;;2.70;;
5052;SDS011;2545;50.892;5.740;2023-01-10T16:21:22;12.23;;;2.37;;
5052;SDS011;2545;50.892;5.740;2023-01-10T16:23:51;6.43;;;1.63;;
5052;SDS011;2545;50.892;5.740;2023-01-10T16:26:16;3.13;;;1.43;;
5052;SDS011;2545;50.892;5.740;2023-01-10T16:28:42;5.77;;;2.07;;
5052;SDS011;2545;50.892;5.740;2023-01-10T16:31:09;1.63;;;1.43;;
5052;SDS011;2545;50.892;5.740;2023-01-10T16:33:36;5.87;;;2.10;;
5052;SDS011;2545;50.892;5.740;2023-01-10T16:36:02;5.93;;;1.70;;
5052;SDS011;2545;50.892;5.740;2023-01-10T16:38:28;3.87;;;1.60;;
5052;SDS011;2545;50.892;5.740;2023-01-10T16:41:01;1.77;;;1.20;;
5052;SDS011;2545;50.892;5.740;2023-01-10T16:43:49;11.23;;;1.70;;
5052;SDS011;2545;50.892;5.740;2023-01-10T16:46:15;2.23;;;1.40;;
5052;SDS011;2545;50.892;5.740;2023-01-10T16:48:41;1.80;;;1.40;;
5052;SDS011;2545;50.892;5.740;2023-01-10T16:53:40;6.60;;;1.87;;
5052;SDS011;2545;50.892;5.740;2023-01-10T16:56:05;1.97;;;1.20;;
5052;SDS011;2545;50.892;5.740;2023-01-10T16:58:34;2.00;;;1.20;;
5052;SDS011;2545;50.892;5.740;2023-01-10T17:00:59;3.43;;;1.10;;
5052;SDS011;2545;50.892;5.740;2023-01-10T17:03:24;3.00;;;1.23;;
5052;SDS011;2545;50.892;5.740;2023-01-10T17:05:50;1.50;;;1.20;;
5052;SDS011;2545;50.892;5.740;2023-01-10T17:08:17;1.77;;;1.23;;
5052;SDS011;2545;50.892;5.740;2023-01-10T17:10:44;5.60;;;1.17;;
5052;SDS011;2545;50.892;5.740;2023-01-10T17:13:13;4.63;;;1.27;;
5052;SDS011;2545;50.892;5.740;2023-01-10T17:15:45;2.23;;;1.10;;
5052;SDS011;2545;50.892;5.740;2023-01-10T17:18:10;3.10;;;1.50;;